Ellsburg, Minnesota
Current Conditions -  °F | °C
As of 3:31 AM on Friday 28 Nov 2014 (Local Time) from KEVM Reporting Station
Light Snow Light Snow  
Wind Chill:   Ceiling: Unl
Heat Index:   Visibility: 5mi
Dew Point:   Wind: 3mph
Humidity: 72%   Direction: 160°SSE
Pressure: 30.12"   Gusts: NA
Location:  47.2457°N, 92.4531°W
Report Text: KEVM 280931Z AUTO 16003KT 5SM -SN SCT007 M14/M18 A3012 RMK AO2
Loading
Personal Weather Stations






























Interactive Weather Map New forecast layout! Learn more

10-Day Weather Forecast

Advertisements
Track Severe Weather on mobile